sensor_id;sensor_type;location;lat;lon;timestamp;temperature;humidity
12688;DHT22;6408;59.388;17.798;2023-11-19T00:00:38;-2.40;99.90
12688;DHT22;6408;59.388;17.798;2023-11-19T00:03:06;-2.40;99.90
12688;DHT22;6408;59.388;17.798;2023-11-19T00:05:34;-2.40;99.90
12688;DHT22;6408;59.388;17.798;2023-11-19T00:08:04;-2.40;99.90
12688;DHT22;6408;59.388;17.798;2023-11-19T00:10:33;-2.50;99.90
12688;DHT22;6408;59.388;17.798;2023-11-19T00:13:00;-2.40;99.90
12688;DHT22;6408;59.388;17.798;2023-11-19T00:15:30;-2.40;99.90
12688;DHT22;6408;59.388;17.798;2023-11-19T00:17:58;-2.50;99.90
12688;DHT22;6408;59.388;17.798;2023-11-19T00:20:30;-2.40;99.90
12688;DHT22;6408;59.388;17.798;2023-11-19T00:22:58;-2.50;99.90
12688;DHT22;6408;59.388;17.798;2023-11-19T00:25:29;-2.40;99.90
12688;DHT22;6408;59.388;17.798;2023-11-19T00:27:58;-2.50;99.90
12688;DHT22;6408;59.388;17.798;2023-11-19T00:30:25;-2.50;99.90
12688;DHT22;6408;59.388;17.798;2023-11-19T00:32:53;-2.50;99.90
12688;DHT22;6408;59.388;17.798;2023-11-19T00:35:22;-2.50;99.90
12688;DHT22;6408;59.388;17.798;2023-11-19T00:37:50;-2.60;99.90
12688;DHT22;6408;59.388;17.798;2023-11-19T00:40:20;-2.60;99.90
12688;DHT22;6408;59.388;17.798;2023-11-19T00:42:48;-2.50;99.90
12688;DHT22;6408;59.388;17.798;2023-11-19T00:45:17;-2.50;99.90
12688;DHT22;6408;59.388;17.798;2023-11-19T00:47:45;-2.50;99.90
12688;DHT22;6408;59.388;17.798;2023-11-19T00:50:13;-2.50;99.90
12688;DHT22;6408;59.388;17.798;2023-11-19T00:52:41;-2.50;99.90
12688;DHT22;6408;59.388;17.798;2023-11-19T00:55:08;-2.50;99.90
12688;DHT22;6408;59.388;17.798;2023-11-19T00:57:37;-2.60;99.90
12688;DHT22;6408;59.388;17.798;2023-11-19T01:00:06;-2.60;99.90
12688;DHT22;6408;59.388;17.798;2023-11-19T01:02:47;-2.60;99.90
12688;DHT22;6408;59.388;17.798;2023-11-19T01:05:15;-2.60;99.90
12688;DHT22;6408;59.388;17.798;2023-11-19T01:07:44;-2.60;99.90
12688;DHT22;6408;59.388;17.798;2023-11-19T01:10:14;-2.70;99.90
12688;DHT22;6408;59.388;17.798;2023-11-19T01:12:42;-2.70;99.90
12688;DHT22;6408;59.388;17.798;2023-11-19T01:15:10;-2.70;99.90
12688;DHT22;6408;59.388;17.798;2023-11-19T01:17:38;-2.70;99.90
12688;DHT22;6408;59.388;17.798;2023-11-19T01:20:10;-2.70;99.90
12688;DHT22;6408;59.388;17.798;2023-11-19T01:22:39;-2.80;99.90
12688;DHT22;6408;59.388;17.798;2023-11-19T01:25:06;-2.80;99.90
12688;DHT22;6408;59.388;17.798;2023-11-19T01:27:34;-2.80;99.90
12688;DHT22;6408;59.388;17.798;2023-11-19T01:30:04;-2.80;99.90
12688;DHT22;6408;59.388;17.798;2023-11-19T01:32:45;-2.70;99.90
12688;DHT22;6408;59.388;17.798;2023-11-19T01:35:20;-2.70;99.90
12688;DHT22;6408;59.388;17.798;2023-11-19T01:37:49;-2.70;99.90
12688;DHT22;6408;59.388;17.798;2023-11-19T01:40:20;-2.70;99.90
12688;DHT22;6408;59.388;17.798;2023-11-19T01:42:49;-2.60;99.90
12688;DHT22;6408;59.388;17.798;2023-11-19T01:45:26;-2.50;99.90
12688;DHT22;6408;59.388;17.798;2023-11-19T01:47:56;-2.60;99.90
12688;DHT22;6408;59.388;17.798;2023-11-19T01:50:28;-2.60;99.90
12688;DHT22;6408;59.388;17.798;2023-11-19T01:52:58;-2.60;99.90
12688;DHT22;6408;59.388;17.798;2023-11-19T01:55:27;-2.60;99.90
12688;DHT22;6408;59.388;17.798;2023-11-19T01:57:57;-2.60;99.90
12688;DHT22;6408;59.388;17.798;2023-11-19T02:00:28;-2.50;99.90
12688;DHT22;6408;59.388;17.798;2023-11-19T02:02:56;-2.60;99.90
12688;DHT22;6408;59.388;17.798;2023-11-19T02:05:24;-2.70;99.90
12688;DHT22;6408;59.388;17.798;2023-11-19T02:08:01;-2.70;99.90
12688;DHT22;6408;59.388;17.798;2023-11-19T02:10:29;-2.60;99.90
12688;DHT22;6408;59.388;17.798;2023-11-19T02:12:57;-2.50;99.90
12688;DHT22;6408;59.388;17.798;2023-11-19T02:15:27;-2.50;99.90
12688;DHT22;6408;59.388;17.798;2023-11-19T02:17:55;-2.60;99.90
12688;DHT22;6408;59.388;17.798;2023-11-19T02:20:27;-2.60;99.90
12688;DHT22;6408;59.388;17.798;2023-11-19T02:22:54;-2.60;99.90
12688;DHT22;6408;59.388;17.798;2023-11-19T02:25:30;-2.60;99.90
12688;DHT22;6408;59.388;17.798;2023-11-19T02:28:01;-2.60;99.90
12688;DHT22;6408;59.388;17.798;2023-11-19T02:30:42;-2.70;99.90
12688;DHT22;6408;59.388;17.798;2023-11-19T02:33:10;-2.60;99.90
12688;DHT22;6408;59.388;17.798;2023-11-19T02:35:38;-2.60;99.90
12688;DHT22;6408;59.388;17.798;2023-11-19T02:38:07;-2.60;99.90
12688;DHT22;6408;59.388;17.798;2023-11-19T02:40:34;-2.60;99.90
12688;DHT22;6408;59.388;17.798;2023-11-19T02:43:03;-2.60;99.90
12688;DHT22;6408;59.388;17.798;2023-11-19T02:45:32;-2.60;99.90
12688;DHT22;6408;59.388;17.798;2023-11-19T02:48:02;-2.60;99.90
12688;DHT22;6408;59.388;17.798;2023-11-19T02:50:32;-2.50;99.90
12688;DHT22;6408;59.388;17.798;2023-11-19T02:53:00;-2.50;99.90
12688;DHT22;6408;59.388;17.798;2023-11-19T02:55:29;-2.50;99.90
12688;DHT22;6408;59.388;17.798;2023-11-19T02:58:04;-2.50;99.90
12688;DHT22;6408;59.388;17.798;2023-11-19T03:00:42;-2.60;99.90
12688;DHT22;6408;59.388;17.798;2023-11-19T03:03:18;-2.60;99.90
12688;DHT22;6408;59.388;17.798;2023-11-19T03:05:46;-2.50;99.90
12688;DHT22;6408;59.388;17.798;2023-11-19T03:08:15;-2.50;99.90
12688;DHT22;6408;59.388;17.798;2023-11-19T03:10:43;-2.50;99.90
12688;DHT22;6408;59.388;17.798;2023-11-19T03:13:13;-2.50;99.90
12688;DHT22;6408;59.388;17.798;2023-11-19T03:15:44;-2.70;99.90
12688;DHT22;6408;59.388;17.798;2023-11-19T03:18:13;-2.70;99.90
12688;DHT22;6408;59.388;17.798;2023-11-19T03:20:42;-2.70;99.90
12688;DHT22;6408;59.388;17.798;2023-11-19T03:23:10;-2.70;99.90
12688;DHT22;6408;59.388;17.798;2023-11-19T03:25:39;-2.80;99.90
12688;DHT22;6408;59.388;17.798;2023-11-19T03:28:07;-2.70;99.90
12688;DHT22;6408;59.388;17.798;2023-11-19T03:30:36;-2.70;99.90
12688;DHT22;6408;59.388;17.798;2023-11-19T03:33:05;-2.70;99.90
12688;DHT22;6408;59.388;17.798;2023-11-19T03:35:33;-2.70;99.90
12688;DHT22;6408;59.388;17.798;2023-11-19T03:38:01;-2.70;99.90
12688;DHT22;6408;59.388;17.798;2023-11-19T03:40:30;-2.80;99.90
12688;DHT22;6408;59.388;17.798;2023-11-19T03:42:59;-2.80;99.90
12688;DHT22;6408;59.388;17.798;2023-11-19T03:45:27;-2.80;99.90
12688;DHT22;6408;59.388;17.798;2023-11-19T03:47:58;-2.80;99.90
12688;DHT22;6408;59.388;17.798;2023-11-19T03:50:30;-2.80;99.90
12688;DHT22;6408;59.388;17.798;2023-11-19T03:52:57;-2.80;99.90
12688;DHT22;6408;59.388;17.798;2023-11-19T03:55:25;-2.90;99.90
12688;DHT22;6408;59.388;17.798;2023-11-19T03:57:52;-2.80;99.90
12688;DHT22;6408;59.388;17.798;2023-11-19T04:00:20;-2.90;99.90
12688;DHT22;6408;59.388;17.798;2023-11-19T04:02:48;-2.90;99.90
12688;DHT22;6408;59.388;17.798;2023-11-19T04:05:17;-2.90;99.90
12688;DHT22;6408;59.388;17.798;2023-11-19T04:07:45;-2.90;99.90
12688;DHT22;6408;59.388;17.798;2023-11-19T04:10:14;-2.90;99.90
12688;DHT22;6408;59.388;17.798;2023-11-19T04:12:42;-2.90;99.90
12688;DHT22;6408;59.388;17.798;2023-11-19T04:15:11;-2.90;99.90
12688;DHT22;6408;59.388;17.798;2023-11-19T04:17:38;-2.90;99.90
12688;DHT22;6408;59.388;17.798;2023-11-19T04:20:07;-2.90;99.90
12688;DHT22;6408;59.388;17.798;2023-11-19T04:22:51;-2.80;99.90
12688;DHT22;6408;59.388;17.798;2023-11-19T04:25:20;-2.80;99.90
12688;DHT22;6408;59.388;17.798;2023-11-19T04:27:47;-2.80;99.90
12688;DHT22;6408;59.388;17.798;2023-11-19T04:30:15;-2.80;99.90
12688;DHT22;6408;59.388;17.798;2023-11-19T04:32:43;-2.80;99.90
12688;DHT22;6408;59.388;17.798;2023-11-19T04:35:11;-2.90;99.90
12688;DHT22;6408;59.388;17.798;2023-11-19T04:37:44;-2.80;99.90
12688;DHT22;6408;59.388;17.798;2023-11-19T04:40:13;-2.90;99.90
12688;DHT22;6408;59.388;17.798;2023-11-19T04:42:41;-3.00;99.90
12688;DHT22;6408;59.388;17.798;2023-11-19T04:45:10;-3.00;99.90
12688;DHT22;6408;59.388;17.798;2023-11-19T04:47:42;-3.00;99.90
12688;DHT22;6408;59.388;17.798;2023-11-19T04:50:10;-3.10;99.90
12688;DHT22;6408;59.388;17.798;2023-11-19T04:52:37;-3.10;99.90
12688;DHT22;6408;59.388;17.798;2023-11-19T04:55:08;-3.10;99.90
12688;DHT22;6408;59.388;17.798;2023-11-19T04:57:41;-3.00;99.90
12688;DHT22;6408;59.388;17.798;2023-11-19T05:00:10;-3.10;99.90
12688;DHT22;6408;59.388;17.798;2023-11-19T05:02:38;-3.30;99.90
12688;DHT22;6408;59.388;17.798;2023-11-19T05:05:15;-3.40;99.90
12688;DHT22;6408;59.388;17.798;2023-11-19T05:07:50;-3.40;99.90
12688;DHT22;6408;59.388;17.798;2023-11-19T05:10:22;-3.40;99.90
12688;DHT22;6408;59.388;17.798;2023-11-19T05:12:50;-3.40;99.90
12688;DHT22;6408;59.388;17.798;2023-11-19T05:15:25;-3.60;99.90
12688;DHT22;6408;59.388;17.798;2023-11-19T05:18:01;-3.60;99.90
12688;DHT22;6408;59.388;17.798;2023-11-19T05:20:31;-3.70;99.90
12688;DHT22;6408;59.388;17.798;2023-11-19T05:23:01;-3.70;99.90
12688;DHT22;6408;59.388;17.798;2023-11-19T05:25:37;-3.70;99.90
12688;DHT22;6408;59.388;17.798;2023-11-19T05:28:06;-3.80;99.90
12688;DHT22;6408;59.388;17.798;2023-11-19T05:30:33;-3.80;99.90
12688;DHT22;6408;59.388;17.798;2023-11-19T05:33:01;-3.90;99.90
12688;DHT22;6408;59.388;17.798;2023-11-19T05:35:29;-3.80;99.90
12688;DHT22;6408;59.388;17.798;2023-11-19T05:37:56;-3.70;99.90
12688;DHT22;6408;59.388;17.798;2023-11-19T05:40:23;-3.80;99.90
12688;DHT22;6408;59.388;17.798;2023-11-19T05:42:52;-3.80;99.90
12688;DHT22;6408;59.388;17.798;2023-11-19T05:45:20;-3.80;99.90
12688;DHT22;6408;59.388;17.798;2023-11-19T05:47:48;-3.70;99.90
12688;DHT22;6408;59.388;17.798;2023-11-19T05:50:20;-3.70;99.90
12688;DHT22;6408;59.388;17.798;2023-11-19T05:52:49;-3.60;99.90
12688;DHT22;6408;59.388;17.798;2023-11-19T05:55:18;-3.60;99.90
12688;DHT22;6408;59.388;17.798;2023-11-19T05:57:46;-3.60;99.90
12688;DHT22;6408;59.388;17.798;2023-11-19T06:00:14;-3.50;99.90
12688;DHT22;6408;59.388;17.798;2023-11-19T06:02:43;-3.50;99.90
12688;DHT22;6408;59.388;17.798;2023-11-19T06:05:11;-3.50;99.90
12688;DHT22;6408;59.388;17.798;2023-11-19T06:07:39;-3.40;99.90
12688;DHT22;6408;59.388;17.798;2023-11-19T06:10:07;-3.40;99.90
12688;DHT22;6408;59.388;17.798;2023-11-19T06:12:38;-3.20;99.90
12688;DHT22;6408;59.388;17.798;2023-11-19T06:15:09;-3.10;99.90
12688;DHT22;6408;59.388;17.798;2023-11-19T06:17:39;-3.10;99.90
12688;DHT22;6408;59.388;17.798;2023-11-19T06:22:58;-3.00;99.90
12688;DHT22;6408;59.388;17.798;2023-11-19T06:25:25;-3.10;99.90
12688;DHT22;6408;59.388;17.798;2023-11-19T06:27:54;-3.00;99.90
12688;DHT22;6408;59.388;17.798;2023-11-19T06:30:24;-3.00;99.90
12688;DHT22;6408;59.388;17.798;2023-11-19T06:32:58;-3.00;99.90
12688;DHT22;6408;59.388;17.798;2023-11-19T06:35:25;-2.90;99.90
12688;DHT22;6408;59.388;17.798;2023-11-19T06:38:16;-2.80;99.90
12688;DHT22;6408;59.388;17.798;2023-11-19T06:40:52;-2.80;99.90
12688;DHT22;6408;59.388;17.798;2023-11-19T06:43:34;-2.90;99.90
12688;DHT22;6408;59.388;17.798;2023-11-19T06:46:05;-2.90;99.90
12688;DHT22;6408;59.388;17.798;2023-11-19T06:48:45;-3.00;99.90
12688;DHT22;6408;59.388;17.798;2023-11-19T06:51:13;-3.00;99.90
12688;DHT22;6408;59.388;17.798;2023-11-19T06:53:43;-3.00;99.90
12688;DHT22;6408;59.388;17.798;2023-11-19T06:56:21;-3.00;99.90
12688;DHT22;6408;59.388;17.798;2023-11-19T06:58:50;-3.00;99.90
12688;DHT22;6408;59.388;17.798;2023-11-19T07:01:26;-3.00;99.90
12688;DHT22;6408;59.388;17.798;2023-11-19T07:04:00;-3.00;99.90
12688;DHT22;6408;59.388;17.798;2023-11-19T07:06:36;-2.90;99.90
12688;DHT22;6408;59.388;17.798;2023-11-19T07:09:28;-3.00;99.90
12688;DHT22;6408;59.388;17.798;2023-11-19T07:12:03;-2.90;99.90
12688;DHT22;6408;59.388;17.798;2023-11-19T07:17:50;-2.90;99.90
12688;DHT22;6408;59.388;17.798;2023-11-19T07:20:23;-2.90;99.90
12688;DHT22;6408;59.388;17.798;2023-11-19T07:22:52;-2.80;99.90
12688;DHT22;6408;59.388;17.798;2023-11-19T07:25:20;-2.80;99.90
12688;DHT22;6408;59.388;17.798;2023-11-19T07:27:53;-2.80;99.90
12688;DHT22;6408;59.388;17.798;2023-11-19T07:31:10;-2.80;99.90
12688;DHT22;6408;59.388;17.798;2023-11-19T07:33:56;-2.80;99.90
12688;DHT22;6408;59.388;17.798;2023-11-19T07:36:43;-2.90;99.90
12688;DHT22;6408;59.388;17.798;2023-11-19T07:39:12;-2.90;99.90
12688;DHT22;6408;59.388;17.798;2023-11-19T07:41:41;-2.80;99.90
12688;DHT22;6408;59.388;17.798;2023-11-19T07:44:22;-2.80;99.90
12688;DHT22;6408;59.388;17.798;2023-11-19T07:46:59;-2.80;99.90
12688;DHT22;6408;59.388;17.798;2023-11-19T07:49:26;-2.80;99.90
12688;DHT22;6408;59.388;17.798;2023-11-19T07:51:55;-2.70;99.90
12688;DHT22;6408;59.388;17.798;2023-11-19T07:54:23;-2.60;99.90
12688;DHT22;6408;59.388;17.798;2023-11-19T07:56:50;-2.70;99.90
12688;DHT22;6408;59.388;17.798;2023-11-19T07:59:20;-2.70;99.90
12688;DHT22;6408;59.388;17.798;2023-11-19T08:01:53;-2.50;99.90
12688;DHT22;6408;59.388;17.798;2023-11-19T08:04:20;-2.50;99.90
12688;DHT22;6408;59.388;17.798;2023-11-19T08:06:47;-2.50;99.90
12688;DHT22;6408;59.388;17.798;2023-11-19T08:09:19;-2.50;99.90
12688;DHT22;6408;59.388;17.798;2023-11-19T08:11:49;-2.50;99.90
12688;DHT22;6408;59.388;17.798;2023-11-19T08:14:17;-2.40;99.90
12688;DHT22;6408;59.388;17.798;2023-11-19T08:16:46;-2.40;99.90
12688;DHT22;6408;59.388;17.798;2023-11-19T08:19:13;-2.40;99.90
12688;DHT22;6408;59.388;17.798;2023-11-19T08:21:41;-2.40;99.90
12688;DHT22;6408;59.388;17.798;2023-11-19T08:24:09;-2.50;99.90
12688;DHT22;6408;59.388;17.798;2023-11-19T08:26:42;-2.50;99.90
12688;DHT22;6408;59.388;17.798;2023-11-19T08:29:11;-2.40;99.90
12688;DHT22;6408;59.388;17.798;2023-11-19T08:31:39;-2.40;99.90
12688;DHT22;6408;59.388;17.798;2023-11-19T08:34:06;-2.20;99.90
12688;DHT22;6408;59.388;17.798;2023-11-19T08:36:34;-2.20;99.90
12688;DHT22;6408;59.388;17.798;2023-11-19T08:39:02;-2.20;99.90
12688;DHT22;6408;59.388;17.798;2023-11-19T08:41:29;-2.10;99.90
12688;DHT22;6408;59.388;17.798;2023-11-19T08:43:58;-2.10;99.90
12688;DHT22;6408;59.388;17.798;2023-11-19T08:46:27;-2.00;99.90
12688;DHT22;6408;59.388;17.798;2023-11-19T08:48:55;-1.90;99.90
12688;DHT22;6408;59.388;17.798;2023-11-19T08:51:24;-1.80;99.90
12688;DHT22;6408;59.388;17.798;2023-11-19T08:53:52;-1.70;99.90
12688;DHT22;6408;59.388;17.798;2023-11-19T08:56:22;-1.80;99.90
12688;DHT22;6408;59.388;17.798;2023-11-19T08:58:54;-1.80;99.90
12688;DHT22;6408;59.388;17.798;2023-11-19T09:01:25;-1.80;99.90
12688;DHT22;6408;59.388;17.798;2023-11-19T09:03:54;-1.80;99.90
12688;DHT22;6408;59.388;17.798;2023-11-19T09:06:22;-1.80;99.90
12688;DHT22;6408;59.388;17.798;2023-11-19T09:08:49;-1.60;99.90
12688;DHT22;6408;59.388;17.798;2023-11-19T09:11:17;-1.50;99.90
12688;DHT22;6408;59.388;17.798;2023-11-19T09:13:44;-1.40;99.90
12688;DHT22;6408;59.388;17.798;2023-11-19T09:16:11;-1.40;99.90
12688;DHT22;6408;59.388;17.798;2023-11-19T09:18:41;-1.30;99.90
12688;DHT22;6408;59.388;17.798;2023-11-19T09:21:09;-1.10;99.90
12688;DHT22;6408;59.388;17.798;2023-11-19T09:23:37;-1.20;99.90
12688;DHT22;6408;59.388;17.798;2023-11-19T09:26:05;-1.10;99.90
12688;DHT22;6408;59.388;17.798;2023-11-19T09:28:34;-1.10;99.90
12688;DHT22;6408;59.388;17.798;2023-11-19T09:31:13;-1.00;99.90
12688;DHT22;6408;59.388;17.798;2023-11-19T09:33:48;-0.90;99.90
12688;DHT22;6408;59.388;17.798;2023-11-19T09:36:20;-0.60;99.90
12688;DHT22;6408;59.388;17.798;2023-11-19T09:38:49;-0.60;99.90
12688;DHT22;6408;59.388;17.798;2023-11-19T09:41:18;-0.60;99.90
12688;DHT22;6408;59.388;17.798;2023-11-19T09:43:45;-0.60;99.90
12688;DHT22;6408;59.388;17.798;2023-11-19T09:46:14;-0.60;99.90
12688;DHT22;6408;59.388;17.798;2023-11-19T09:48:44;-0.60;99.90
12688;DHT22;6408;59.388;17.798;2023-11-19T09:51:14;-0.50;99.90
12688;DHT22;6408;59.388;17.798;2023-11-19T09:53:42;-0.50;99.90
12688;DHT22;6408;59.388;17.798;2023-11-19T09:56:11;-0.60;99.90
12688;DHT22;6408;59.388;17.798;2023-11-19T09:58:39;-0.70;99.90
12688;DHT22;6408;59.388;17.798;2023-11-19T10:01:07;-0.60;99.90
12688;DHT22;6408;59.388;17.798;2023-11-19T10:03:39;-0.60;99.90
12688;DHT22;6408;59.388;17.798;2023-11-19T10:06:11;-0.50;99.90
12688;DHT22;6408;59.388;17.798;2023-11-19T10:08:40;-0.50;99.90
12688;DHT22;6408;59.388;17.798;2023-11-19T10:11:09;-0.40;99.90
12688;DHT22;6408;59.388;17.798;2023-11-19T10:13:38;-0.40;99.90
12688;DHT22;6408;59.388;17.798;2023-11-19T10:16:08;-0.30;99.90
12688;DHT22;6408;59.388;17.798;2023-11-19T10:18:37;-0.10;99.90
12688;DHT22;6408;59.388;17.798;2023-11-19T10:21:06;0.00;99.90
12688;DHT22;6408;59.388;17.798;2023-11-19T10:23:56;0.10;99.90
12688;DHT22;6408;59.388;17.798;2023-11-19T10:26:26;0.00;99.90
12688;DHT22;6408;59.388;17.798;2023-11-19T10:28:53;0.00;99.90
12688;DHT22;6408;59.388;17.798;2023-11-19T10:31:22;-0.20;99.90
12688;DHT22;6408;59.388;17.798;2023-11-19T10:33:52;-0.30;99.90
12688;DHT22;6408;59.388;17.798;2023-11-19T10:36:19;-0.40;99.90
12688;DHT22;6408;59.388;17.798;2023-11-19T10:38:59;-0.40;99.90
12688;DHT22;6408;59.388;17.798;2023-11-19T10:41:27;-0.40;99.90
12688;DHT22;6408;59.388;17.798;2023-11-19T10:43:57;-0.50;99.90
12688;DHT22;6408;59.388;17.798;2023-11-19T10:46:36;-0.50;99.90
12688;DHT22;6408;59.388;17.798;2023-11-19T10:49:04;-0.50;99.90
12688;DHT22;6408;59.388;17.798;2023-11-19T10:51:32;-0.50;99.90
12688;DHT22;6408;59.388;17.798;2023-11-19T10:54:03;-0.30;99.90
12688;DHT22;6408;59.388;17.798;2023-11-19T10:56:31;-0.20;99.90
12688;DHT22;6408;59.388;17.798;2023-11-19T10:58:59;-0.20;99.90
12688;DHT22;6408;59.388;17.798;2023-11-19T11:01:45;-0.20;99.90
12688;DHT22;6408;59.388;17.798;2023-11-19T11:04:14;-0.30;99.90
12688;DHT22;6408;59.388;17.798;2023-11-19T11:06:49;-0.30;99.90
12688;DHT22;6408;59.388;17.798;2023-11-19T11:09:21;-0.40;99.90
12688;DHT22;6408;59.388;17.798;2023-11-19T11:11:50;-0.50;99.90
12688;DHT22;6408;59.388;17.798;2023-11-19T11:14:19;-0.50;99.90
12688;DHT22;6408;59.388;17.798;2023-11-19T11:16:48;-0.40;99.90
12688;DHT22;6408;59.388;17.798;2023-11-19T11:19:16;-0.30;99.90
12688;DHT22;6408;59.388;17.798;2023-11-19T11:21:50;-0.20;99.90
12688;DHT22;6408;59.388;17.798;2023-11-19T11:24:43;-0.20;99.90
12688;DHT22;6408;59.388;17.798;2023-11-19T11:27:46;-0.30;99.90
12688;DHT22;6408;59.388;17.798;2023-11-19T11:30:29;-0.40;99.90
12688;DHT22;6408;59.388;17.798;2023-11-19T11:33:25;-0.60;99.90
12688;DHT22;6408;59.388;17.798;2023-11-19T11:36:01;-0.70;99.90
12688;DHT22;6408;59.388;17.798;2023-11-19T11:38:38;-0.80;99.90
12688;DHT22;6408;59.388;17.798;2023-11-19T11:41:19;-0.80;99.90
12688;DHT22;6408;59.388;17.798;2023-11-19T11:43:48;-1.00;99.90
12688;DHT22;6408;59.388;17.798;2023-11-19T11:49:28;-1.00;99.90
12688;DHT22;6408;59.388;17.798;2023-11-19T11:52:00;-1.00;99.90
12688;DHT22;6408;59.388;17.798;2023-11-19T11:54:29;-1.00;99.90
12688;DHT22;6408;59.388;17.798;2023-11-19T11:57:19;-1.00;99.90
12688;DHT22;6408;59.388;17.798;2023-11-19T11:59:51;-0.90;99.90
12688;DHT22;6408;59.388;17.798;2023-11-19T12:02:20;-0.90;99.90
12688;DHT22;6408;59.388;17.798;2023-11-19T12:04:52;-1.00;99.90
12688;DHT22;6408;59.388;17.798;2023-11-19T12:07:23;-1.00;99.90
12688;DHT22;6408;59.388;17.798;2023-11-19T12:09:52;-1.00;99.90
12688;DHT22;6408;59.388;17.798;2023-11-19T12:12:27;-1.00;99.90
12688;DHT22;6408;59.388;17.798;2023-11-19T12:15:06;-1.00;99.90
12688;DHT22;6408;59.388;17.798;2023-11-19T12:17:54;-1.10;99.90
12688;DHT22;6408;59.388;17.798;2023-11-19T12:20:27;-1.10;99.90
12688;DHT22;6408;59.388;17.798;2023-11-19T12:22:57;-1.10;99.90
12688;DHT22;6408;59.388;17.798;2023-11-19T12:25:34;-1.10;99.90
12688;DHT22;6408;59.388;17.798;2023-11-19T12:28:03;-1.10;99.90
12688;DHT22;6408;59.388;17.798;2023-11-19T12:30:34;-1.30;99.90
12688;DHT22;6408;59.388;17.798;2023-11-19T12:33:08;-1.30;99.90
12688;DHT22;6408;59.388;17.798;2023-11-19T12:35:47;-1.30;99.90
12688;DHT22;6408;59.388;17.798;2023-11-19T12:38:22;-1.30;99.90
12688;DHT22;6408;59.388;17.798;2023-11-19T12:41:08;-1.30;99.90
12688;DHT22;6408;59.388;17.798;2023-11-19T12:43:40;-1.40;99.90
12688;DHT22;6408;59.388;17.798;2023-11-19T12:46:18;-1.40;99.90
12688;DHT22;6408;59.388;17.798;2023-11-19T12:48:46;-1.50;99.90
12688;DHT22;6408;59.388;17.798;2023-11-19T12:51:16;-1.40;99.90
12688;DHT22;6408;59.388;17.798;2023-11-19T12:53:53;-1.40;99.90
12688;DHT22;6408;59.388;17.798;2023-11-19T12:56:31;-1.40;99.90
12688;DHT22;6408;59.388;17.798;2023-11-19T12:59:11;-1.40;99.90
12688;DHT22;6408;59.388;17.798;2023-11-19T13:01:42;-1.40;99.90
12688;DHT22;6408;59.388;17.798;2023-11-19T13:04:20;-1.50;99.90
12688;DHT22;6408;59.388;17.798;2023-11-19T13:06:50;-1.50;99.90
12688;DHT22;6408;59.388;17.798;2023-11-19T13:09:25;-1.50;99.90
12688;DHT22;6408;59.388;17.798;2023-11-19T13:12:14;-1.50;99.90
12688;DHT22;6408;59.388;17.798;2023-11-19T13:14:44;-1.50;99.90
12688;DHT22;6408;59.388;17.798;2023-11-19T13:17:14;-1.60;99.90
12688;DHT22;6408;59.388;17.798;2023-11-19T13:19:42;-1.50;99.90
12688;DHT22;6408;59.388;17.798;2023-11-19T13:22:12;-1.40;99.90
12688;DHT22;6408;59.388;17.798;2023-11-19T13:24:42;-1.40;99.90
12688;DHT22;6408;59.388;17.798;2023-11-19T13:27:11;-1.50;99.90
12688;DHT22;6408;59.388;17.798;2023-11-19T13:29:39;-1.50;99.90
12688;DHT22;6408;59.388;17.798;2023-11-19T13:32:08;-1.40;99.90
12688;DHT22;6408;59.388;17.798;2023-11-19T13:34:36;-1.40;99.90
12688;DHT22;6408;59.388;17.798;2023-11-19T13:37:07;-1.40;99.90
12688;DHT22;6408;59.388;17.798;2023-11-19T13:39:34;-1.40;99.90
12688;DHT22;6408;59.388;17.798;2023-11-19T13:42:01;-1.40;99.90
12688;DHT22;6408;59.388;17.798;2023-11-19T13:44:29;-1.40;99.90
12688;DHT22;6408;59.388;17.798;2023-11-19T13:47:00;-1.30;99.90
12688;DHT22;6408;59.388;17.798;2023-11-19T13:49:30;-1.30;99.90
12688;DHT22;6408;59.388;17.798;2023-11-19T13:51:57;-1.30;99.90
12688;DHT22;6408;59.388;17.798;2023-11-19T13:54:24;-1.30;99.90
12688;DHT22;6408;59.388;17.798;2023-11-19T13:56:55;-1.30;99.90
12688;DHT22;6408;59.388;17.798;2023-11-19T13:59:23;-1.30;99.90
12688;DHT22;6408;59.388;17.798;2023-11-19T14:01:51;-1.30;99.90
12688;DHT22;6408;59.388;17.798;2023-11-19T14:04:23;-1.30;99.90
12688;DHT22;6408;59.388;17.798;2023-11-19T14:06:52;-1.20;99.90
12688;DHT22;6408;59.388;17.798;2023-11-19T14:09:21;-1.30;99.90
12688;DHT22;6408;59.388;17.798;2023-11-19T14:11:49;-1.20;99.90
12688;DHT22;6408;59.388;17.798;2023-11-19T14:14:17;-1.30;99.90
12688;DHT22;6408;59.388;17.798;2023-11-19T14:16:45;-1.30;99.90
12688;DHT22;6408;59.388;17.798;2023-11-19T14:19:12;-1.40;99.90
12688;DHT22;6408;59.388;17.798;2023-11-19T14:21:39;-1.40;99.90
12688;DHT22;6408;59.388;17.798;2023-11-19T14:24:09;-1.40;99.90
12688;DHT22;6408;59.388;17.798;2023-11-19T14:29:27;-1.20;99.90
12688;DHT22;6408;59.388;17.798;2023-11-19T14:31:55;-1.20;99.90
12688;DHT22;6408;59.388;17.798;2023-11-19T14:34:24;-1.30;99.90
12688;DHT22;6408;59.388;17.798;2023-11-19T14:37:11;-1.30;99.90
12688;DHT22;6408;59.388;17.798;2023-11-19T14:42:51;-1.30;99.90
12688;DHT22;6408;59.388;17.798;2023-11-19T14:45:27;-1.30;99.90
12688;DHT22;6408;59.388;17.798;2023-11-19T14:47:54;-1.30;99.90
12688;DHT22;6408;59.388;17.798;2023-11-19T14:50:23;-1.30;99.90
12688;DHT22;6408;59.388;17.798;2023-11-19T14:52:51;-1.30;99.90
12688;DHT22;6408;59.388;17.798;2023-11-19T14:55:24;-1.30;99.90
12688;DHT22;6408;59.388;17.798;2023-11-19T14:57:56;-1.30;99.90
12688;DHT22;6408;59.388;17.798;2023-11-19T15:00:43;-1.30;99.90
12688;DHT22;6408;59.388;17.798;2023-11-19T15:03:13;-1.30;99.90
12688;DHT22;6408;59.388;17.798;2023-11-19T15:05:43;-1.30;99.90
12688;DHT22;6408;59.388;17.798;2023-11-19T15:08:11;-1.30;99.90
12688;DHT22;6408;59.388;17.798;2023-11-19T15:10:40;-1.40;99.90
12688;DHT22;6408;59.388;17.798;2023-11-19T15:13:13;-1.40;99.90
12688;DHT22;6408;59.388;17.798;2023-11-19T15:16:12;-1.30;99.90
12688;DHT22;6408;59.388;17.798;2023-11-19T15:18:50;-1.40;99.90
12688;DHT22;6408;59.388;17.798;2023-11-19T15:21:19;-1.50;99.90
12688;DHT22;6408;59.388;17.798;2023-11-19T15:27:28;-1.30;99.90
12688;DHT22;6408;59.388;17.798;2023-11-19T15:30:02;-1.40;99.90
12688;DHT22;6408;59.388;17.798;2023-11-19T15:32:41;-1.40;99.90
12688;DHT22;6408;59.388;17.798;2023-11-19T15:35:10;-1.30;99.90
12688;DHT22;6408;59.388;17.798;2023-11-19T15:37:41;-1.30;99.90
12688;DHT22;6408;59.388;17.798;2023-11-19T15:40:24;-1.30;99.90
12688;DHT22;6408;59.388;17.798;2023-11-19T15:42:56;-1.30;99.90
12688;DHT22;6408;59.388;17.798;2023-11-19T15:45:24;-1.30;99.90
12688;DHT22;6408;59.388;17.798;2023-11-19T15:47:52;-1.40;99.90
12688;DHT22;6408;59.388;17.798;2023-11-19T15:50:19;-1.40;99.90
12688;DHT22;6408;59.388;17.798;2023-11-19T15:52:50;-1.30;99.90
12688;DHT22;6408;59.388;17.798;2023-11-19T15:55:22;-1.20;99.90
12688;DHT22;6408;59.388;17.798;2023-11-19T15:58:03;-1.00;99.90
12688;DHT22;6408;59.388;17.798;2023-11-19T16:00:32;-1.10;99.90
12688;DHT22;6408;59.388;17.798;2023-11-19T16:03:00;-1.00;99.90
12688;DHT22;6408;59.388;17.798;2023-11-19T16:05:30;-1.00;99.90
12688;DHT22;6408;59.388;17.798;2023-11-19T16:07:58;-1.00;99.90
12688;DHT22;6408;59.388;17.798;2023-11-19T16:10:27;-1.00;99.90
12688;DHT22;6408;59.388;17.798;2023-11-19T16:12:55;-0.90;99.90